Time;durP1;ratioP1;P1;durP2;ratioP2;P2;SDS_P1;SDS_P2;PMS_P1;PMS_P2;Temp;Humidity;BMP_temperature;BMP_pressure;BME280_temperature;BME280_humidity;BME280_pressure;Samples;Min_cycle;Max_cycle;Signal;HPM_P1;HPM_P2
2023/08/18 00:04:33;;;;;;;14.30;10.10;;;;;;;20.47;75.30;99793.86;428336;1257;9053683;-61
2023/08/18 00:14:39;;;;;;;8.90;8.10;;;;;;;20.53;75.53;99793.62;434878;1258;139987;-61
2023/08/18 00:24:45;;;;;;;7.00;6.40;;;;;;;20.66;74.76;99780.82;435358;1258;139768;-62
2023/08/18 00:34:51;;;;;;;5.00;3.90;;;;;;;20.82;73.16;99772.66;434959;1258;138964;-60
2023/08/18 00:44:57;;;;;;;3.40;3.10;;;;;;;20.99;70.84;99759.73;435084;1258;139356;-60
2023/08/18 00:55:03;;;;;;;3.60;3.30;;;;;;;21.09;69.41;99745.81;435157;1258;139955;-60
2023/08/18 01:05:09;;;;;;;3.40;3.10;;;;;;;21.16;68.73;99739.59;435286;1258;140548;-60
2023/08/18 01:15:21;;;;;;;3.50;3.20;;;;;;;21.22;68.32;99756.61;434915;1257;139357;-61
2023/08/18 01:25:27;;;;;;;6.50;4.70;;;;;;;21.24;69.17;99759.41;435002;1256;140000;-60
2023/08/18 01:35:35;;;;;;;4.80;4.20;;;;;;;21.15;70.74;99755.66;435013;1258;139193;-61
2023/08/18 01:45:41;;;;;;;10.60;5.30;;;;;;;21.01;73.15;99748.26;435041;1254;139379;-60
2023/08/18 01:55:46;;;;;;;4.80;4.30;;;;;;;20.84;74.39;99752.30;434945;1257;139836;-60
2023/08/18 02:05:53;;;;;;;4.80;4.40;;;;;;;20.65;75.12;99752.54;435173;1257;138796;-60
2023/08/18 02:15:59;;;;;;;5.90;5.40;;;;;;;20.58;76.46;99747.35;434879;1254;139467;-63
2023/08/18 02:26:06;;;;;;;6.70;5.00;;;;;;;20.43;76.86;99775.23;434942;1258;139494;-60
2023/08/18 02:36:12;;;;;;;5.10;4.40;;;;;;;20.17;77.15;99784.61;435523;1258;140767;-61
2023/08/18 02:46:19;;;;;;;5.30;4.80;;;;;;;20.00;77.60;99783.77;435041;1257;139527;-60
2023/08/18 02:56:26;;;;;;;4.30;4.00;;;;;;;19.99;77.86;99793.18;435122;1255;139221;-61
2023/08/18 03:06:32;;;;;;;4.70;4.40;;;;;;;19.93;77.90;99783.89;434906;1254;139300;-59
2023/08/18 03:16:38;;;;;;;4.70;4.30;;;;;;;19.82;78.21;99774.59;434655;1254;138850;-61
2023/08/18 03:26:44;;;;;;;5.00;4.60;;;;;;;19.76;78.68;99765.02;434891;1254;138957;-61
2023/08/18 03:36:50;;;;;;;5.00;4.50;;;;;;;19.75;79.17;99765.49;435310;1254;140100;-60
2023/08/18 03:46:57;;;;;;;5.00;4.60;;;;;;;19.75;79.29;99763.20;435087;1254;139231;-60
2023/08/18 03:57:02;;;;;;;4.60;4.20;;;;;;;19.78;79.71;99760.05;434970;1257;139350;-60
2023/08/18 04:07:08;;;;;;;5.30;4.90;;;;;;;19.93;79.82;99758.04;435079;1254;139218;-60
2023/08/18 04:17:14;;;;;;;4.90;4.50;;;;;;;20.17;79.69;99757.19;435111;1257;138694;-60
2023/08/18 04:27:20;;;;;;;7.60;4.90;;;;;;;20.61;79.22;99749.86;435182;1257;138991;-61
2023/08/18 04:37:26;;;;;;;4.50;4.20;;;;;;;21.22;78.09;99754.40;435076;1254;139334;-61
2023/08/18 04:47:32;;;;;;;4.60;4.20;;;;;;;21.70;76.34;99755.54;435006;1254;138666;-61
2023/08/18 04:57:38;;;;;;;4.90;3.90;;;;;;;21.97;74.58;99751.30;435133;1257;138917;-61
2023/08/18 05:07:45;;;;;;;3.20;3.00;;;;;;;22.45;74.00;99757.75;434636;1256;139680;-70
2023/08/18 05:17:51;;;;;;;3.00;2.80;;;;;;;25.04;72.58;99749.61;434679;1254;139114;-71
2023/08/18 05:27:57;;;;;;;3.10;2.80;;;;;;;27.48;65.85;99755.05;434711;1257;138561;-73
2023/08/18 05:38:03;;;;;;;2.90;2.70;;;;;;;31.37;60.26;99752.77;433994;1257;139450;-69
2023/08/18 05:48:09;;;;;;;2.70;2.50;;;;;;;33.72;51.45;99742.58;435296;1255;139833;-73
2023/08/18 05:58:15;;;;;;;4.40;2.60;;;;;;;35.97;47.65;99746.41;434593;1257;139587;-68
2023/08/18 06:08:21;;;;;;;3.90;2.10;;;;;;;38.11;42.56;99748.67;434694;1257;138092;-66
2023/08/18 06:18:27;;;;;;;2.00;1.80;;;;;;;37.45;39.00;99741.71;434785;1254;138032;-73
2023/08/18 06:28:33;;;;;;;4.20;1.90;;;;;;;39.89;38.57;99736.09;436901;1257;138178;-65
2023/08/18 06:38:39;;;;;;;2.20;1.70;;;;;;;44.19;33.30;99729.89;434924;1256;138472;-77
2023/08/18 06:48:45;;;;;;;3.20;1.70;;;;;;;44.80;30.12;99729.08;437976;1257;138142;-81
2023/08/18 06:58:51;;;;;;;2.10;2.00;;;;;;;44.50;28.91;99732.09;438076;1256;138278;-70
2023/08/18 07:08:56;;;;;;;2.70;1.90;;;;;;;41.34;28.94;99735.14;435129;1254;139492;-72
2023/08/18 07:19:03;;;;;;;3.60;2.80;;;;;;;38.74;30.89;99736.66;434973;1257;139516;-67
2023/08/18 07:29:09;;;;;;;3.10;2.80;;;;;;;36.04;33.19;99737.92;435319;1256;137997;-66
2023/08/18 07:39:14;;;;;;;3.50;2.80;;;;;;;33.85;35.81;99745.13;435220;1257;138092;-70
2023/08/18 07:49:21;;;;;;;10.60;5.00;;;;;;;31.55;38.68;99770.63;436119;1255;138534;-67
2023/08/18 07:59:27;;;;;;;4.00;3.70;;;;;;;28.19;46.34;99774.63;434949;1254;138221;-65
2023/08/18 08:09:33;;;;;;;4.90;4.20;;;;;;;25.87;51.71;99772.52;435135;1257;140109;-67
2023/08/18 08:19:39;;;;;;;4.50;3.90;;;;;;;25.32;54.38;99802.10;434862;1255;139013;-66
2023/08/18 08:29:45;;;;;;;4.50;4.20;;;;;;;25.31;56.86;99824.39;434985;1257;138506;-68
2023/08/18 08:39:50;;;;;;;4.30;3.90;;;;;;;25.12;58.74;99821.72;436479;1253;139748;-69
2023/08/18 08:50:01;;;;;;;5.20;4.80;;;;;;;24.67;60.47;99823.52;434795;1255;138865;-67
2023/08/18 09:00:10;;;;;;;9.50;6.10;;;;;;;24.25;62.65;99833.98;435217;1253;139564;-67
2023/08/18 09:10:16;;;;;;;7.70;6.80;;;;;;;23.90;64.28;99834.14;434821;1256;139281;-65
2023/08/18 09:20:25;;;;;;;8.10;7.30;;;;;;;23.64;66.07;99818.12;434743;1257;138907;-68
2023/08/18 09:30:35;;;;;;;8.10;7.40;;;;;;;23.52;67.71;99821.29;434802;1254;139849;-69
2023/08/18 09:40:41;;;;;;;8.30;7.40;;;;;;;23.23;68.77;99843.61;434924;1256;138989;-66
2023/08/18 09:50:52;;;;;;;12.80;10.40;;;;;;;22.71;70.05;99880.55;434956;1257;139674;-67
2023/08/18 10:00:58;;;;;;;9.30;7.80;;;;;;;21.65;73.94;99821.98;435178;1257;139859;-67
2023/08/18 10:11:04;;;;;;;10.80;6.60;;;;;;;20.72;78.21;99799.32;435156;1256;142299;-67
2023/08/18 10:21:11;;;;;;;7.70;6.50;;;;;;;20.18;80.08;99854.31;435285;1255;138946;-67
2023/08/18 10:31:17;;;;;;;8.40;7.40;;;;;;;19.75;81.54;99867.61;435526;1254;140590;-67
2023/08/18 10:41:29;;;;;;;7.40;6.40;;;;;;;19.62;83.39;99869.88;434821;1254;139236;-65
2023/08/18 10:51:35;;;;;;;11.00;6.90;;;;;;;19.55;84.56;99861.05;434750;1256;141136;-64
2023/08/18 11:01:42;;;;;;;7.10;6.50;;;;;;;19.43;85.33;99830.61;434875;1257;139909;-66
2023/08/18 11:11:50;;;;;;;8.40;7.60;;;;;;;19.35;86.82;99806.83;435004;1257;138635;-66
2023/08/18 11:21:57;;;;;;;10.00;7.10;;;;;;;19.52;88.00;99802.52;434640;1256;139496;-67
2023/08/18 11:32:04;;;;;;;6.80;6.10;;;;;;;19.68;87.80;99785.13;435482;1257;140180;-65
2023/08/18 11:42:09;;;;;;;6.90;6.30;;;;;;;20.00;87.96;99783.95;435097;1256;139309;-65
2023/08/18 11:52:17;;;;;;;9.00;7.00;;;;;;;20.31;87.47;99776.80;434889;1257;140324;-69
2023/08/18 12:02:23;;;;;;;8.70;6.90;;;;;;;20.50;86.50;99774.70;434606;1257;149411;-69
2023/08/18 12:12:29;;;;;;;8.10;7.10;;;;;;;20.62;86.07;99748.92;435102;1257;139247;-71
2023/08/18 12:22:36;;;;;;;10.50;8.60;;;;;;;20.45;84.91;99775.52;434877;1257;139625;-72
2023/08/18 12:32:42;;;;;;;13.60;9.40;;;;;;;19.95;86.75;99813.38;437570;1257;139007;-71
2023/08/18 12:42:48;;;;;;;11.50;10.30;;;;;;;19.46;89.40;99846.08;435303;1257;139446;-71
2023/08/18 12:52:54;;;;;;;9.90;8.90;;;;;;;19.20;92.91;99827.83;435244;1256;140259;-65
2023/08/18 13:03:00;;;;;;;12.90;10.70;;;;;;;19.12;95.41;99817.39;435223;1256;139138;-62
2023/08/18 13:13:06;;;;;;;10.60;9.50;;;;;;;19.26;97.66;99767.80;435049;1256;139462;-66
2023/08/18 13:23:13;;;;;;;8.20;7.40;;;;;;;19.46;99.22;99769.55;436639;1253;139817;-78
2023/08/18 13:33:19;;;;;;;7.70;6.80;;;;;;;19.70;99.14;99797.23;437416;1256;140437;-75
2023/08/18 13:43:25;;;;;;;8.80;7.00;;;;;;;19.97;98.76;99808.92;434150;1256;139096;-68
2023/08/18 13:53:33;;;;;;;8.20;7.50;;;;;;;20.17;97.93;99824.56;434695;1256;139407;-62
2023/08/18 14:03:39;;;;;;;7.90;7.30;;;;;;;20.19;97.55;99875.56;435014;1256;139049;-63
2023/08/18 14:13:45;;;;;;;10.90;9.90;;;;;;;20.10;97.73;99890.52;435249;1257;140054;-62
2023/08/18 14:23:51;;;;;;;8.90;8.20;;;;;;;19.99;98.03;99819.83;435007;1256;139271;-63
2023/08/18 14:33:57;;;;;;;8.50;7.80;;;;;;;19.83;98.44;99775.14;434087;1256;140566;-62
2023/08/18 14:44:04;;;;;;;8.50;7.80;;;;;;;19.72;99.06;99756.20;434454;1258;143114;-58
2023/08/18 14:54:10;;;;;;;10.50;9.60;;;;;;;19.70;99.81;99743.41;434409;1256;139226;-61
2023/08/18 15:04:16;;;;;;;10.70;9.70;;;;;;;19.78;99.94;99747.61;434415;1258;140934;-58
2023/08/18 15:14:22;;;;;;;10.70;9.70;;;;;;;19.99;100.00;99754.27;435365;1257;139675;-58
2023/08/18 15:24:28;;;;;;;7.20;6.60;;;;;;;20.23;99.70;99745.29;435021;1256;139373;-61
2023/08/18 15:34:34;;;;;;;7.70;7.00;;;;;;;20.45;98.65;99729.70;434552;1258;140134;-59
2023/08/18 15:44:40;;;;;;;6.50;6.00;;;;;;;20.50;97.68;99725.59;434733;1254;139850;-59
2023/08/18 15:54:46;;;;;;;6.40;5.90;;;;;;;20.44;96.66;99703.51;434605;1258;139317;-59
2023/08/18 16:04:52;;;;;;;7.10;6.40;;;;;;;20.34;96.17;99684.63;434585;1256;139211;-58
2023/08/18 16:14:58;;;;;;;5.30;4.90;;;;;;;20.32;96.19;99673.10;434986;1258;139541;-58
2023/08/18 16:25:24;;;;;;;6.30;5.70;;;;;;;20.36;95.88;99663.23;434575;1256;140794;-65
2023/08/18 16:35:32;;;;;;;5.50;5.10;;;;;;;20.50;95.38;99661.80;434637;1256;139318;-65
2023/08/18 16:45:38;;;;;;;6.20;4.90;;;;;;;20.64;94.79;99660.30;435099;1258;139649;-65
2023/08/18 16:55:43;;;;;;;5.60;5.00;;;;;;;20.76;94.44;99665.11;434986;1258;139554;-67
2023/08/18 17:05:51;;;;;;;6.80;6.20;;;;;;;20.80;93.81;99661.17;434898;1257;138946;-65
2023/08/18 17:15:57;;;;;;;6.40;5.90;;;;;;;20.75;94.22;99666.09;434638;1256;139150;-65
2023/08/18 17:26:03;;;;;;;7.30;6.10;;;;;;;20.64;93.78;99677.38;435619;1258;139718;-65
2023/08/18 17:36:11;;;;;;;9.80;8.10;;;;;;;20.54;95.24;99683.91;434824;1256;139521;-64
2023/08/18 17:46:17;;;;;;;9.30;7.50;;;;;;;20.34;95.93;99683.89;435514;1254;138887;-69
2023/08/18 17:56:22;;;;;;;7.50;6.90;;;;;;;20.10;95.72;99678.89;434283;1258;140428;-67
2023/08/18 18:06:28;;;;;;;7.60;6.80;;;;;;;19.91;96.32;99684.48;434496;1258;139147;-68
2023/08/18 18:16:34;;;;;;;8.40;7.70;;;;;;;19.71;97.01;99696.03;437765;1259;139265;-68
2023/08/18 18:26:40;;;;;;;9.40;8.60;;;;;;;19.54;97.88;99714.80;434819;1259;139526;-67
2023/08/18 18:36:46;;;;;;;11.20;9.40;;;;;;;19.36;98.57;99739.31;434678;1259;139264;-68
2023/08/18 18:46:52;;;;;;;9.80;9.00;;;;;;;19.19;99.45;99759.75;435932;1258;140613;-69
2023/08/18 18:56:58;;;;;;;9.40;8.60;;;;;;;19.08;100.00;99766.91;437652;1254;139998;-69
2023/08/18 19:07:04;;;;;;;9.80;8.90;;;;;;;19.00;100.00;99781.80;437787;1257;139133;-69
2023/08/18 19:17:10;;;;;;;10.50;9.60;;;;;;;18.99;100.00;99773.02;437545;1258;140382;-68
2023/08/18 19:27:17;;;;;;;10.90;9.80;;;;;;;19.04;100.00;99775.25;437860;1258;139494;-69
2023/08/18 19:37:22;;;;;;;12.00;10.70;;;;;;;19.08;100.00;99773.27;437762;1259;139649;-68
2023/08/18 19:47:29;;;;;;;11.30;10.40;;;;;;;19.15;100.00;99757.31;437723;1259;139662;-68
2023/08/18 19:57:35;;;;;;;11.60;9.30;;;;;;;19.20;100.00;99758.33;438094;1259;139669;-69
2023/08/18 20:07:44;;;;;;;13.10;11.90;;;;;;;19.17;100.00;99755.39;438085;1258;140784;-68
2023/08/18 20:17:50;;;;;;;14.10;12.10;;;;;;;19.10;100.00;99743.32;437879;1259;139534;-68
2023/08/18 20:28:00;;;;;;;15.50;13.90;;;;;;;19.07;100.00;99746.58;437627;1254;140583;-68
2023/08/18 20:38:13;;;;;;;14.60;13.20;;;;;;;19.03;100.00;99738.12;434938;1259;141023;-67
2023/08/18 20:48:19;;;;;;;14.50;12.40;;;;;;;18.92;100.00;99732.05;435375;1257;140352;-67
2023/08/18 20:58:25;;;;;;;15.80;12.80;;;;;;;18.80;100.00;99730.02;435119;1258;139777;-67
2023/08/18 21:08:31;;;;;;;14.10;12.80;;;;;;;18.70;100.00;99719.38;435356;1257;199168;-68
2023/08/18 21:18:37;;;;;;;15.00;13.40;;;;;;;18.65;100.00;99716.46;435867;1257;139390;-67
2023/08/18 21:28:43;;;;;;;16.30;14.60;;;;;;;18.59;100.00;99731.23;434773;1257;141266;-68
2023/08/18 21:38:50;;;;;;;16.80;15.00;;;;;;;18.58;100.00;99750.11;434697;1255;140417;-68
2023/08/18 21:48:56;;;;;;;18.20;11.80;;;;;;;18.54;100.00;99750.16;434649;1254;139609;-67
2023/08/18 21:59:03;;;;;;;16.90;15.20;;;;;;;18.47;100.00;99755.41;434605;1258;140231;-67
2023/08/18 22:09:09;;;;;;;17.60;15.40;;;;;;;18.46;100.00;99752.80;436509;1254;140858;-69
2023/08/18 22:19:15;;;;;;;15.70;14.10;;;;;;;18.46;100.00;99738.50;435577;1254;139643;-68
2023/08/18 22:29:21;;;;;;;14.20;12.70;;;;;;;18.42;100.00;99736.71;434773;1255;139597;-67
2023/08/18 22:39:27;;;;;;;12.30;11.10;;;;;;;18.33;100.00;99734.89;434614;1257;140989;-64
2023/08/18 22:49:33;;;;;;;13.50;12.20;;;;;;;18.22;100.00;99742.88;434657;1257;140705;-64
2023/08/18 22:59:39;;;;;;;13.40;12.10;;;;;;;18.09;100.00;99743.21;435136;1255;140157;-66
2023/08/18 23:09:45;;;;;;;13.20;11.90;;;;;;;18.02;100.00;99731.27;434788;1257;139518;-66
2023/08/18 23:19:51;;;;;;;14.00;12.80;;;;;;;17.97;100.00;99732.08;435241;1257;140274;-65
2023/08/18 23:29:59;;;;;;;16.90;12.80;;;;;;;17.87;100.00;99723.35;434787;1257;142211;-65
2023/08/18 23:40:07;;;;;;;19.30;15.20;;;;;;;17.76;100.00;99720.31;434714;1257;139631;-65
2023/08/18 23:50:13;;;;;;;12.60;11.40;;;;;;;17.67;100.00;99716.36;435326;1257;140211;-64
